首页
METAR-TAF:

METAR-TAF

机场 :

霍夫, 德国

纬度: 50-19N, 经度: 011-53E, 海拔: 567米

当前天气观测

该预报发布于35分钟前的14:20 UTC
风速7节,风向西转西南,在南转西南西之间变化
温度 3°C
湿度 75%
气压 1023 hPa
能见度10公里或以上
少量云层高于2700英尺
多云层高于4300英尺

METAR: EDQM 181420Z 24007KT 200V270 9999 FEW027 BKN043 03/M01 Q1023

时间: 15:55 (14:55 UTC)

预报

该预报发布于55分钟前的14:00 UTC
预报有效从18日的 15点(UTC)到 18日的 24点(UTC)
风速6节,风向西转西南
能见度10公里或以上
散云层高于1500英尺
多云层高于3000英尺
几率 30% :
短暂存在
从 18日的 15点(UTC)到 18日的 24点(UTC)
能見度: 1200
多云层高于600英尺, 塔状积云.
小阵雪

TAF: EDQM 181400Z 1815/1824 25006KT 9999 SCT015 BKN030 PROB30 TEMPO 1815/1824 1200 -SHSN BKN006TCU

超过4000个机场的气象观测和天气预报(METAR&TAF报告)。

可查询的气象台以黄色和红色小点在地图上表示。

将鼠标移到小点上方,可查看气象台名称。

然后点击查看天气观测和预报。

如需切换地图:点击带黑十字的绿色按钮放大地图;点击带横线的绿色按钮缩小地图;或者点击绿色箭头查看邻近地区的地图。


METAR-TAF: